sensor_id;sensor_type;location;lat;lon;timestamp;temperature;humidity
29687;DHT22;16599;47.078;15.536;2024-01-06T00:00:05;4.70;99.90
29687;DHT22;16599;47.078;15.536;2024-01-06T00:02:32;4.70;99.90
29687;DHT22;16599;47.078;15.536;2024-01-06T00:04:59;4.70;99.90
29687;DHT22;16599;47.078;15.536;2024-01-06T00:07:25;4.70;99.90
29687;DHT22;16599;47.078;15.536;2024-01-06T00:09:52;4.80;99.90
29687;DHT22;16599;47.078;15.536;2024-01-06T00:12:20;4.90;99.90
29687;DHT22;16599;47.078;15.536;2024-01-06T00:14:47;4.70;99.90
29687;DHT22;16599;47.078;15.536;2024-01-06T00:17:15;4.60;99.90
29687;DHT22;16599;47.078;15.536;2024-01-06T00:19:42;4.60;99.90
29687;DHT22;16599;47.078;15.536;2024-01-06T00:22:09;4.50;99.90
29687;DHT22;16599;47.078;15.536;2024-01-06T00:24:36;4.50;99.90
29687;DHT22;16599;47.078;15.536;2024-01-06T00:27:03;4.60;99.90
29687;DHT22;16599;47.078;15.536;2024-01-06T00:29:29;4.60;99.90
29687;DHT22;16599;47.078;15.536;2024-01-06T00:31:56;4.60;99.90
29687;DHT22;16599;47.078;15.536;2024-01-06T00:34:23;4.60;99.90
29687;DHT22;16599;47.078;15.536;2024-01-06T00:36:50;4.60;99.90
29687;DHT22;16599;47.078;15.536;2024-01-06T00:39:17;4.60;99.90
29687;DHT22;16599;47.078;15.536;2024-01-06T00:41:43;4.70;99.90
29687;DHT22;16599;47.078;15.536;2024-01-06T00:44:10;4.80;99.90
29687;DHT22;16599;47.078;15.536;2024-01-06T00:46:37;4.80;99.90
29687;DHT22;16599;47.078;15.536;2024-01-06T00:49:04;4.70;99.90
29687;DHT22;16599;47.078;15.536;2024-01-06T00:51:31;4.70;99.90
29687;DHT22;16599;47.078;15.536;2024-01-06T00:53:58;4.50;99.90
29687;DHT22;16599;47.078;15.536;2024-01-06T00:56:25;4.50;99.90
29687;DHT22;16599;47.078;15.536;2024-01-06T00:58:53;4.60;99.90
29687;DHT22;16599;47.078;15.536;2024-01-06T01:01:20;4.50;99.90
29687;DHT22;16599;47.078;15.536;2024-01-06T01:03:47;4.60;99.90
29687;DHT22;16599;47.078;15.536;2024-01-06T01:06:14;4.70;99.90
29687;DHT22;16599;47.078;15.536;2024-01-06T01:08:41;4.70;99.90
29687;DHT22;16599;47.078;15.536;2024-01-06T01:11:08;4.80;99.90
29687;DHT22;16599;47.078;15.536;2024-01-06T01:13:35;4.90;99.90
29687;DHT22;16599;47.078;15.536;2024-01-06T01:16:01;5.10;99.90
29687;DHT22;16599;47.078;15.536;2024-01-06T01:18:29;5.20;99.90
29687;DHT22;16599;47.078;15.536;2024-01-06T01:20:56;5.20;99.90
29687;DHT22;16599;47.078;15.536;2024-01-06T01:23:23;5.20;99.90
29687;DHT22;16599;47.078;15.536;2024-01-06T01:25:50;5.10;99.90
29687;DHT22;16599;47.078;15.536;2024-01-06T01:28:16;5.20;99.90
29687;DHT22;16599;47.078;15.536;2024-01-06T01:30:43;5.30;99.90
29687;DHT22;16599;47.078;15.536;2024-01-06T01:33:10;5.30;99.90
29687;DHT22;16599;47.078;15.536;2024-01-06T01:35:37;5.10;99.90
29687;DHT22;16599;47.078;15.536;2024-01-06T01:38:04;5.10;99.90
29687;DHT22;16599;47.078;15.536;2024-01-06T01:40:31;5.00;99.90
29687;DHT22;16599;47.078;15.536;2024-01-06T01:42:58;5.00;99.90
29687;DHT22;16599;47.078;15.536;2024-01-06T01:45:24;5.00;99.90
29687;DHT22;16599;47.078;15.536;2024-01-06T01:51:21;5.00;99.90
29687;DHT22;16599;47.078;15.536;2024-01-06T01:53:48;5.10;99.90
29687;DHT22;16599;47.078;15.536;2024-01-06T01:56:16;5.10;99.90
29687;DHT22;16599;47.078;15.536;2024-01-06T01:58:43;5.10;99.90
29687;DHT22;16599;47.078;15.536;2024-01-06T02:01:10;4.90;99.90
29687;DHT22;16599;47.078;15.536;2024-01-06T02:03:37;4.90;99.90
29687;DHT22;16599;47.078;15.536;2024-01-06T02:06:04;4.80;99.90
29687;DHT22;16599;47.078;15.536;2024-01-06T02:08:31;4.70;99.90
29687;DHT22;16599;47.078;15.536;2024-01-06T02:10:58;4.70;99.90
29687;DHT22;16599;47.078;15.536;2024-01-06T02:13:32;4.80;99.90
29687;DHT22;16599;47.078;15.536;2024-01-06T02:15:59;4.70;99.90
29687;DHT22;16599;47.078;15.536;2024-01-06T02:18:26;4.60;99.90
29687;DHT22;16599;47.078;15.536;2024-01-06T02:20:53;4.70;99.90
29687;DHT22;16599;47.078;15.536;2024-01-06T02:23:23;4.70;99.90
29687;DHT22;16599;47.078;15.536;2024-01-06T02:25:50;4.70;99.90
29687;DHT22;16599;47.078;15.536;2024-01-06T02:28:17;4.60;99.90
29687;DHT22;16599;47.078;15.536;2024-01-06T02:30:44;4.60;99.90
29687;DHT22;16599;47.078;15.536;2024-01-06T02:33:11;4.80;99.90
29687;DHT22;16599;47.078;15.536;2024-01-06T02:35:38;4.90;99.90
29687;DHT22;16599;47.078;15.536;2024-01-06T02:38:06;4.60;99.90
29687;DHT22;16599;47.078;15.536;2024-01-06T02:40:33;4.70;99.90
29687;DHT22;16599;47.078;15.536;2024-01-06T02:43:00;4.70;99.90
29687;DHT22;16599;47.078;15.536;2024-01-06T02:45:27;4.60;99.90
29687;DHT22;16599;47.078;15.536;2024-01-06T02:47:54;4.70;99.90
29687;DHT22;16599;47.078;15.536;2024-01-06T02:50:21;4.70;99.90
29687;DHT22;16599;47.078;15.536;2024-01-06T02:52:48;4.70;99.90
29687;DHT22;16599;47.078;15.536;2024-01-06T02:55:14;4.90;99.90
29687;DHT22;16599;47.078;15.536;2024-01-06T02:57:41;5.00;99.90
29687;DHT22;16599;47.078;15.536;2024-01-06T03:00:08;4.90;99.90
29687;DHT22;16599;47.078;15.536;2024-01-06T03:02:35;4.90;99.90
29687;DHT22;16599;47.078;15.536;2024-01-06T03:05:04;4.90;99.90
29687;DHT22;16599;47.078;15.536;2024-01-06T03:07:31;4.90;99.90
29687;DHT22;16599;47.078;15.536;2024-01-06T03:09:58;4.80;99.90
29687;DHT22;16599;47.078;15.536;2024-01-06T03:12:24;4.80;99.90
29687;DHT22;16599;47.078;15.536;2024-01-06T03:14:51;4.80;99.90
29687;DHT22;16599;47.078;15.536;2024-01-06T03:17:19;4.90;99.90
29687;DHT22;16599;47.078;15.536;2024-01-06T03:19:46;4.90;99.90
29687;DHT22;16599;47.078;15.536;2024-01-06T03:22:13;5.00;99.90
29687;DHT22;16599;47.078;15.536;2024-01-06T03:24:39;4.90;99.90
29687;DHT22;16599;47.078;15.536;2024-01-06T03:27:06;4.90;99.90
29687;DHT22;16599;47.078;15.536;2024-01-06T03:29:33;5.00;99.90
29687;DHT22;16599;47.078;15.536;2024-01-06T03:32:00;4.90;99.90
29687;DHT22;16599;47.078;15.536;2024-01-06T03:34:27;4.80;99.90
29687;DHT22;16599;47.078;15.536;2024-01-06T03:36:53;4.90;99.90
29687;DHT22;16599;47.078;15.536;2024-01-06T03:39:21;4.90;99.90
29687;DHT22;16599;47.078;15.536;2024-01-06T03:41:48;4.90;99.90
29687;DHT22;16599;47.078;15.536;2024-01-06T03:44:14;4.90;99.90
29687;DHT22;16599;47.078;15.536;2024-01-06T03:46:41;4.70;99.90
29687;DHT22;16599;47.078;15.536;2024-01-06T03:49:08;4.70;99.90
29687;DHT22;16599;47.078;15.536;2024-01-06T03:51:35;4.70;99.90
29687;DHT22;16599;47.078;15.536;2024-01-06T03:54:02;4.80;99.90
29687;DHT22;16599;47.078;15.536;2024-01-06T03:56:28;4.80;99.90
29687;DHT22;16599;47.078;15.536;2024-01-06T03:58:55;4.70;99.90
29687;DHT22;16599;47.078;15.536;2024-01-06T04:01:22;4.70;99.90
29687;DHT22;16599;47.078;15.536;2024-01-06T04:03:49;4.60;99.90
29687;DHT22;16599;47.078;15.536;2024-01-06T04:06:16;4.70;99.90
29687;DHT22;16599;47.078;15.536;2024-01-06T04:08:42;4.80;99.90
29687;DHT22;16599;47.078;15.536;2024-01-06T04:11:09;4.80;99.90
29687;DHT22;16599;47.078;15.536;2024-01-06T04:13:36;4.70;99.90
29687;DHT22;16599;47.078;15.536;2024-01-06T04:16:03;4.70;99.90
29687;DHT22;16599;47.078;15.536;2024-01-06T04:18:30;4.70;99.90
29687;DHT22;16599;47.078;15.536;2024-01-06T04:20:56;4.80;99.90
29687;DHT22;16599;47.078;15.536;2024-01-06T04:23:23;4.80;99.90
29687;DHT22;16599;47.078;15.536;2024-01-06T04:25:52;4.80;99.90
29687;DHT22;16599;47.078;15.536;2024-01-06T04:28:19;4.70;99.90
29687;DHT22;16599;47.078;15.536;2024-01-06T04:30:45;4.60;99.90
29687;DHT22;16599;47.078;15.536;2024-01-06T04:33:12;4.60;99.90
29687;DHT22;16599;47.078;15.536;2024-01-06T04:35:39;4.70;99.90
29687;DHT22;16599;47.078;15.536;2024-01-06T04:38:06;4.80;99.90
29687;DHT22;16599;47.078;15.536;2024-01-06T04:40:33;4.70;99.90
29687;DHT22;16599;47.078;15.536;2024-01-06T04:43:00;4.80;99.90
29687;DHT22;16599;47.078;15.536;2024-01-06T04:45:27;4.80;99.90
29687;DHT22;16599;47.078;15.536;2024-01-06T04:47:53;4.80;99.90
29687;DHT22;16599;47.078;15.536;2024-01-06T04:50:20;4.80;99.90
29687;DHT22;16599;47.078;15.536;2024-01-06T04:52:47;4.80;99.90
29687;DHT22;16599;47.078;15.536;2024-01-06T04:55:14;4.70;99.90
29687;DHT22;16599;47.078;15.536;2024-01-06T04:57:41;4.70;99.90
29687;DHT22;16599;47.078;15.536;2024-01-06T05:00:08;4.80;99.90
29687;DHT22;16599;47.078;15.536;2024-01-06T05:02:35;4.80;99.90
29687;DHT22;16599;47.078;15.536;2024-01-06T05:05:02;4.80;99.90
29687;DHT22;16599;47.078;15.536;2024-01-06T05:07:28;4.80;99.90
29687;DHT22;16599;47.078;15.536;2024-01-06T05:09:55;4.80;99.90
29687;DHT22;16599;47.078;15.536;2024-01-06T05:12:22;4.90;99.90
29687;DHT22;16599;47.078;15.536;2024-01-06T05:14:49;4.80;99.90
29687;DHT22;16599;47.078;15.536;2024-01-06T05:17:16;4.90;99.90
29687;DHT22;16599;47.078;15.536;2024-01-06T05:19:43;4.80;99.90
29687;DHT22;16599;47.078;15.536;2024-01-06T05:22:09;4.80;99.90
29687;DHT22;16599;47.078;15.536;2024-01-06T05:24:36;4.80;99.90
29687;DHT22;16599;47.078;15.536;2024-01-06T05:27:03;4.80;99.90
29687;DHT22;16599;47.078;15.536;2024-01-06T05:29:30;4.80;99.90
29687;DHT22;16599;47.078;15.536;2024-01-06T05:31:57;4.80;99.90
29687;DHT22;16599;47.078;15.536;2024-01-06T05:34:24;4.80;99.90
29687;DHT22;16599;47.078;15.536;2024-01-06T05:36:51;4.80;99.90
29687;DHT22;16599;47.078;15.536;2024-01-06T05:39:18;4.80;99.90
29687;DHT22;16599;47.078;15.536;2024-01-06T05:41:47;4.90;99.90
29687;DHT22;16599;47.078;15.536;2024-01-06T05:44:13;4.80;99.90
29687;DHT22;16599;47.078;15.536;2024-01-06T05:46:40;4.80;99.90
29687;DHT22;16599;47.078;15.536;2024-01-06T05:49:07;4.90;99.90
29687;DHT22;16599;47.078;15.536;2024-01-06T05:51:35;4.80;99.90
29687;DHT22;16599;47.078;15.536;2024-01-06T05:54:02;4.90;99.90
29687;DHT22;16599;47.078;15.536;2024-01-06T05:56:29;4.90;99.90
29687;DHT22;16599;47.078;15.536;2024-01-06T05:58:56;4.80;99.90
29687;DHT22;16599;47.078;15.536;2024-01-06T06:01:22;4.70;99.90
29687;DHT22;16599;47.078;15.536;2024-01-06T06:03:50;4.80;99.90
29687;DHT22;16599;47.078;15.536;2024-01-06T06:06:18;4.80;99.90
29687;DHT22;16599;47.078;15.536;2024-01-06T06:08:45;4.80;99.90
29687;DHT22;16599;47.078;15.536;2024-01-06T06:11:12;4.80;99.90
29687;DHT22;16599;47.078;15.536;2024-01-06T06:13:42;4.80;99.90
29687;DHT22;16599;47.078;15.536;2024-01-06T06:16:09;4.80;99.90
29687;DHT22;16599;47.078;15.536;2024-01-06T06:18:36;4.80;99.90
29687;DHT22;16599;47.078;15.536;2024-01-06T06:21:03;4.90;99.90
29687;DHT22;16599;47.078;15.536;2024-01-06T06:23:30;4.90;99.90
29687;DHT22;16599;47.078;15.536;2024-01-06T06:25:57;4.90;99.90
29687;DHT22;16599;47.078;15.536;2024-01-06T06:28:25;4.90;99.90
29687;DHT22;16599;47.078;15.536;2024-01-06T06:30:53;4.90;99.90
29687;DHT22;16599;47.078;15.536;2024-01-06T06:33:20;4.90;99.90
29687;DHT22;16599;47.078;15.536;2024-01-06T06:35:47;4.90;99.90
29687;DHT22;16599;47.078;15.536;2024-01-06T06:38:14;4.80;99.90
29687;DHT22;16599;47.078;15.536;2024-01-06T06:40:40;4.80;99.90
29687;DHT22;16599;47.078;15.536;2024-01-06T06:43:07;4.80;99.90
29687;DHT22;16599;47.078;15.536;2024-01-06T06:45:35;4.80;99.90
29687;DHT22;16599;47.078;15.536;2024-01-06T06:48:02;4.90;99.90
29687;DHT22;16599;47.078;15.536;2024-01-06T06:50:29;4.80;99.90
29687;DHT22;16599;47.078;15.536;2024-01-06T06:52:56;4.90;99.90
29687;DHT22;16599;47.078;15.536;2024-01-06T06:55:23;4.90;99.90
29687;DHT22;16599;47.078;15.536;2024-01-06T06:57:49;4.80;99.90
29687;DHT22;16599;47.078;15.536;2024-01-06T07:00:16;4.90;99.90
29687;DHT22;16599;47.078;15.536;2024-01-06T07:02:44;4.90;99.90
29687;DHT22;16599;47.078;15.536;2024-01-06T07:05:10;4.80;99.90
29687;DHT22;16599;47.078;15.536;2024-01-06T07:07:37;4.80;99.90
29687;DHT22;16599;47.078;15.536;2024-01-06T07:10:05;4.80;99.90
29687;DHT22;16599;47.078;15.536;2024-01-06T07:12:32;4.90;99.90
29687;DHT22;16599;47.078;15.536;2024-01-06T07:14:59;4.90;99.90
29687;DHT22;16599;47.078;15.536;2024-01-06T07:17:26;5.00;99.90
29687;DHT22;16599;47.078;15.536;2024-01-06T07:19:52;5.00;99.90
29687;DHT22;16599;47.078;15.536;2024-01-06T07:22:20;5.00;99.90
29687;DHT22;16599;47.078;15.536;2024-01-06T07:24:47;5.00;99.90
29687;DHT22;16599;47.078;15.536;2024-01-06T07:27:14;5.00;99.90
29687;DHT22;16599;47.078;15.536;2024-01-06T07:29:41;5.10;99.90
29687;DHT22;16599;47.078;15.536;2024-01-06T07:32:08;5.00;99.90
29687;DHT22;16599;47.078;15.536;2024-01-06T07:34:35;5.00;99.90
29687;DHT22;16599;47.078;15.536;2024-01-06T07:37:02;4.90;99.90
29687;DHT22;16599;47.078;15.536;2024-01-06T07:39:29;4.90;99.90
29687;DHT22;16599;47.078;15.536;2024-01-06T07:41:55;4.90;99.90
29687;DHT22;16599;47.078;15.536;2024-01-06T07:44:22;5.00;99.90
29687;DHT22;16599;47.078;15.536;2024-01-06T07:46:52;5.00;99.90
29687;DHT22;16599;47.078;15.536;2024-01-06T07:49:18;5.10;99.90
29687;DHT22;16599;47.078;15.536;2024-01-06T07:51:46;5.10;99.90
29687;DHT22;16599;47.078;15.536;2024-01-06T07:54:12;5.10;99.90
29687;DHT22;16599;47.078;15.536;2024-01-06T07:56:39;5.10;99.90
29687;DHT22;16599;47.078;15.536;2024-01-06T07:59:06;5.20;99.90
29687;DHT22;16599;47.078;15.536;2024-01-06T08:01:33;5.20;99.90
29687;DHT22;16599;47.078;15.536;2024-01-06T08:04:00;5.20;99.90
29687;DHT22;16599;47.078;15.536;2024-01-06T08:06:27;5.20;99.90
29687;DHT22;16599;47.078;15.536;2024-01-06T08:08:54;5.20;99.90
29687;DHT22;16599;47.078;15.536;2024-01-06T08:11:21;5.20;99.90
29687;DHT22;16599;47.078;15.536;2024-01-06T08:13:48;5.30;99.90
29687;DHT22;16599;47.078;15.536;2024-01-06T08:16:15;5.30;99.90
29687;DHT22;16599;47.078;15.536;2024-01-06T08:18:42;5.30;99.90
29687;DHT22;16599;47.078;15.536;2024-01-06T08:21:09;5.30;99.90
29687;DHT22;16599;47.078;15.536;2024-01-06T08:23:35;5.30;99.90
29687;DHT22;16599;47.078;15.536;2024-01-06T08:26:03;5.30;99.90
29687;DHT22;16599;47.078;15.536;2024-01-06T08:28:30;5.40;99.90
29687;DHT22;16599;47.078;15.536;2024-01-06T08:30:57;5.40;99.90
29687;DHT22;16599;47.078;15.536;2024-01-06T08:33:24;5.40;99.90
29687;DHT22;16599;47.078;15.536;2024-01-06T08:35:51;5.40;99.90
29687;DHT22;16599;47.078;15.536;2024-01-06T08:38:18;5.40;99.90
29687;DHT22;16599;47.078;15.536;2024-01-06T08:43:48;5.40;99.90
29687;DHT22;16599;47.078;15.536;2024-01-06T08:46:15;5.40;99.90
29687;DHT22;16599;47.078;15.536;2024-01-06T08:48:42;5.40;99.90
29687;DHT22;16599;47.078;15.536;2024-01-06T08:51:09;5.40;99.90
29687;DHT22;16599;47.078;15.536;2024-01-06T08:53:35;5.50;99.90
29687;DHT22;16599;47.078;15.536;2024-01-06T08:56:02;5.50;99.90
29687;DHT22;16599;47.078;15.536;2024-01-06T08:58:29;5.50;99.90
29687;DHT22;16599;47.078;15.536;2024-01-06T09:00:56;5.50;99.90
29687;DHT22;16599;47.078;15.536;2024-01-06T09:03:23;5.50;99.90
29687;DHT22;16599;47.078;15.536;2024-01-06T09:05:54;5.50;99.90
29687;DHT22;16599;47.078;15.536;2024-01-06T09:08:21;5.60;99.90
29687;DHT22;16599;47.078;15.536;2024-01-06T09:10:49;5.60;99.90
29687;DHT22;16599;47.078;15.536;2024-01-06T09:16:03;5.60;99.90
29687;DHT22;16599;47.078;15.536;2024-01-06T09:18:30;5.60;99.90
29687;DHT22;16599;47.078;15.536;2024-01-06T09:20:57;5.70;99.90
29687;DHT22;16599;47.078;15.536;2024-01-06T09:30:20;5.80;99.90
29687;DHT22;16599;47.078;15.536;2024-01-06T09:32:47;5.80;99.90
29687;DHT22;16599;47.078;15.536;2024-01-06T09:35:14;5.80;99.90
29687;DHT22;16599;47.078;15.536;2024-01-06T09:37:41;5.80;99.90
29687;DHT22;16599;47.078;15.536;2024-01-06T09:40:20;5.90;99.90
29687;DHT22;16599;47.078;15.536;2024-01-06T09:43:03;5.90;99.90
29687;DHT22;16599;47.078;15.536;2024-01-06T09:45:48;6.00;99.90
29687;DHT22;16599;47.078;15.536;2024-01-06T09:48:49;6.00;99.90
29687;DHT22;16599;47.078;15.536;2024-01-06T09:51:18;6.00;99.90
29687;DHT22;16599;47.078;15.536;2024-01-06T09:53:49;6.00;99.90
29687;DHT22;16599;47.078;15.536;2024-01-06T09:56:18;6.00;99.90
29687;DHT22;16599;47.078;15.536;2024-01-06T09:58:48;6.10;99.90
29687;DHT22;16599;47.078;15.536;2024-01-06T10:01:19;6.10;99.90
29687;DHT22;16599;47.078;15.536;2024-01-06T10:03:46;6.10;99.90
29687;DHT22;16599;47.078;15.536;2024-01-06T10:06:14;6.10;99.90
29687;DHT22;16599;47.078;15.536;2024-01-06T10:08:44;6.10;99.90
29687;DHT22;16599;47.078;15.536;2024-01-06T10:11:22;6.10;99.90
29687;DHT22;16599;47.078;15.536;2024-01-06T10:13:49;6.10;99.90
29687;DHT22;16599;47.078;15.536;2024-01-06T10:16:21;6.10;99.90
29687;DHT22;16599;47.078;15.536;2024-01-06T10:18:49;6.10;99.90
29687;DHT22;16599;47.078;15.536;2024-01-06T10:21:20;6.10;99.90
29687;DHT22;16599;47.078;15.536;2024-01-06T10:23:48;6.10;99.90
29687;DHT22;16599;47.078;15.536;2024-01-06T10:26:15;6.20;99.90
29687;DHT22;16599;47.078;15.536;2024-01-06T10:28:42;6.20;99.90
29687;DHT22;16599;47.078;15.536;2024-01-06T10:31:10;6.10;99.90
29687;DHT22;16599;47.078;15.536;2024-01-06T10:33:37;6.20;99.90
29687;DHT22;16599;47.078;15.536;2024-01-06T10:36:06;6.20;99.90
29687;DHT22;16599;47.078;15.536;2024-01-06T10:38:33;6.20;99.90
29687;DHT22;16599;47.078;15.536;2024-01-06T10:41:02;6.10;99.90
29687;DHT22;16599;47.078;15.536;2024-01-06T10:43:36;6.20;99.90
29687;DHT22;16599;47.078;15.536;2024-01-06T10:46:04;6.20;99.90
29687;DHT22;16599;47.078;15.536;2024-01-06T10:48:34;6.20;99.90
29687;DHT22;16599;47.078;15.536;2024-01-06T10:51:01;6.20;99.90
29687;DHT22;16599;47.078;15.536;2024-01-06T10:53:34;6.10;99.90
29687;DHT22;16599;47.078;15.536;2024-01-06T10:56:06;6.10;99.90
29687;DHT22;16599;47.078;15.536;2024-01-06T10:58:47;6.10;99.90
29687;DHT22;16599;47.078;15.536;2024-01-06T11:01:21;6.10;99.90
29687;DHT22;16599;47.078;15.536;2024-01-06T11:03:53;6.10;99.90
29687;DHT22;16599;47.078;15.536;2024-01-06T11:06:21;6.20;99.90
29687;DHT22;16599;47.078;15.536;2024-01-06T11:11:34;6.10;99.90
29687;DHT22;16599;47.078;15.536;2024-01-06T11:14:22;6.10;99.90
29687;DHT22;16599;47.078;15.536;2024-01-06T11:16:49;6.10;99.90
29687;DHT22;16599;47.078;15.536;2024-01-06T11:22:19;6.10;99.90
29687;DHT22;16599;47.078;15.536;2024-01-06T11:24:47;6.10;99.90
29687;DHT22;16599;47.078;15.536;2024-01-06T11:27:25;6.10;99.90
29687;DHT22;16599;47.078;15.536;2024-01-06T11:29:56;6.10;99.90
29687;DHT22;16599;47.078;15.536;2024-01-06T11:32:27;6.20;99.90
29687;DHT22;16599;47.078;15.536;2024-01-06T11:34:55;6.20;99.90
29687;DHT22;16599;47.078;15.536;2024-01-06T11:38:09;6.20;99.90
29687;DHT22;16599;47.078;15.536;2024-01-06T11:43:39;6.20;99.90
29687;DHT22;16599;47.078;15.536;2024-01-06T11:46:07;6.20;99.90
29687;DHT22;16599;47.078;15.536;2024-01-06T11:51:41;6.20;99.90
29687;DHT22;16599;47.078;15.536;2024-01-06T11:57:49;6.20;99.90
29687;DHT22;16599;47.078;15.536;2024-01-06T12:03:45;6.20;99.90
29687;DHT22;16599;47.078;15.536;2024-01-06T12:06:19;6.20;99.90
29687;DHT22;16599;47.078;15.536;2024-01-06T12:08:49;6.20;99.90
29687;DHT22;16599;47.078;15.536;2024-01-06T12:11:18;6.30;99.90
29687;DHT22;16599;47.078;15.536;2024-01-06T12:13:45;6.20;99.90
29687;DHT22;16599;47.078;15.536;2024-01-06T12:16:11;6.30;99.90
29687;DHT22;16599;47.078;15.536;2024-01-06T12:21:33;6.20;99.90
29687;DHT22;16599;47.078;15.536;2024-01-06T12:26:56;6.20;99.90
29687;DHT22;16599;47.078;15.536;2024-01-06T12:29:27;6.20;99.90
29687;DHT22;16599;47.078;15.536;2024-01-06T12:31:59;6.20;99.90
29687;DHT22;16599;47.078;15.536;2024-01-06T12:34:26;6.20;99.90
29687;DHT22;16599;47.078;15.536;2024-01-06T12:36:53;6.20;99.90
29687;DHT22;16599;47.078;15.536;2024-01-06T12:42:51;6.20;99.90
29687;DHT22;16599;47.078;15.536;2024-01-06T12:45:18;6.20;99.90
29687;DHT22;16599;47.078;15.536;2024-01-06T12:47:45;6.20;99.90
29687;DHT22;16599;47.078;15.536;2024-01-06T12:50:13;6.20;99.90
29687;DHT22;16599;47.078;15.536;2024-01-06T12:52:42;6.20;99.90
29687;DHT22;16599;47.078;15.536;2024-01-06T12:55:09;6.20;99.90
29687;DHT22;16599;47.078;15.536;2024-01-06T12:57:36;6.20;99.90
29687;DHT22;16599;47.078;15.536;2024-01-06T13:00:03;6.10;99.90
29687;DHT22;16599;47.078;15.536;2024-01-06T13:02:32;6.20;99.90
29687;DHT22;16599;47.078;15.536;2024-01-06T13:04:59;6.20;99.90
29687;DHT22;16599;47.078;15.536;2024-01-06T13:10:55;6.10;99.90
29687;DHT22;16599;47.078;15.536;2024-01-06T13:13:41;6.10;99.90
29687;DHT22;16599;47.078;15.536;2024-01-06T13:16:08;6.10;99.90
29687;DHT22;16599;47.078;15.536;2024-01-06T13:18:36;6.10;99.90
29687;DHT22;16599;47.078;15.536;2024-01-06T13:21:03;6.10;99.90
29687;DHT22;16599;47.078;15.536;2024-01-06T13:23:30;6.10;99.90
29687;DHT22;16599;47.078;15.536;2024-01-06T13:25:57;6.10;99.90
29687;DHT22;16599;47.078;15.536;2024-01-06T13:28:24;6.20;99.90
29687;DHT22;16599;47.078;15.536;2024-01-06T13:30:51;6.20;99.90
29687;DHT22;16599;47.078;15.536;2024-01-06T13:33:18;6.10;99.90
29687;DHT22;16599;47.078;15.536;2024-01-06T13:35:46;6.10;99.90
29687;DHT22;16599;47.078;15.536;2024-01-06T13:38:12;6.10;99.90
29687;DHT22;16599;47.078;15.536;2024-01-06T13:40:39;6.10;99.90
29687;DHT22;16599;47.078;15.536;2024-01-06T13:43:06;6.10;99.90
29687;DHT22;16599;47.078;15.536;2024-01-06T13:45:35;6.10;99.90
29687;DHT22;16599;47.078;15.536;2024-01-06T13:48:02;6.20;99.90
29687;DHT22;16599;47.078;15.536;2024-01-06T13:50:35;6.10;99.90
29687;DHT22;16599;47.078;15.536;2024-01-06T13:53:02;6.10;99.90
29687;DHT22;16599;47.078;15.536;2024-01-06T13:55:30;6.00;99.90
29687;DHT22;16599;47.078;15.536;2024-01-06T13:57:56;6.00;99.90
29687;DHT22;16599;47.078;15.536;2024-01-06T14:00:24;6.00;99.90
29687;DHT22;16599;47.078;15.536;2024-01-06T14:02:51;6.00;99.90
29687;DHT22;16599;47.078;15.536;2024-01-06T14:05:18;5.90;99.90
29687;DHT22;16599;47.078;15.536;2024-01-06T14:07:46;6.00;99.90
29687;DHT22;16599;47.078;15.536;2024-01-06T14:10:16;6.00;99.90
29687;DHT22;16599;47.078;15.536;2024-01-06T14:12:43;6.00;99.90
29687;DHT22;16599;47.078;15.536;2024-01-06T14:15:10;6.00;99.90
29687;DHT22;16599;47.078;15.536;2024-01-06T14:17:37;6.00;99.90
29687;DHT22;16599;47.078;15.536;2024-01-06T14:20:05;6.00;99.90
29687;DHT22;16599;47.078;15.536;2024-01-06T14:22:32;6.00;99.90
29687;DHT22;16599;47.078;15.536;2024-01-06T14:24:59;6.00;99.90
29687;DHT22;16599;47.078;15.536;2024-01-06T14:27:31;6.00;99.90
29687;DHT22;16599;47.078;15.536;2024-01-06T14:29:58;6.00;99.90
29687;DHT22;16599;47.078;15.536;2024-01-06T14:32:25;5.90;99.90
29687;DHT22;16599;47.078;15.536;2024-01-06T14:34:53;5.90;99.90
29687;DHT22;16599;47.078;15.536;2024-01-06T14:37:20;5.90;99.90
29687;DHT22;16599;47.078;15.536;2024-01-06T14:39:48;5.90;99.90
29687;DHT22;16599;47.078;15.536;2024-01-06T14:42:14;5.90;99.90
29687;DHT22;16599;47.078;15.536;2024-01-06T14:44:43;5.90;99.90
29687;DHT22;16599;47.078;15.536;2024-01-06T14:47:10;5.90;99.90
29687;DHT22;16599;47.078;15.536;2024-01-06T14:49:37;5.90;99.90
29687;DHT22;16599;47.078;15.536;2024-01-06T14:52:04;5.80;99.90
29687;DHT22;16599;47.078;15.536;2024-01-06T14:54:31;5.80;99.90
29687;DHT22;16599;47.078;15.536;2024-01-06T14:57:00;5.70;99.90
29687;DHT22;16599;47.078;15.536;2024-01-06T14:59:28;5.80;99.90
29687;DHT22;16599;47.078;15.536;2024-01-06T15:01:59;5.70;99.90
29687;DHT22;16599;47.078;15.536;2024-01-06T15:04:26;5.70;99.90
29687;DHT22;16599;47.078;15.536;2024-01-06T15:06:56;5.70;99.90
29687;DHT22;16599;47.078;15.536;2024-01-06T15:09:23;5.80;99.90
29687;DHT22;16599;47.078;15.536;2024-01-06T15:11:52;5.80;99.90
29687;DHT22;16599;47.078;15.536;2024-01-06T15:14:19;5.70;99.90
29687;DHT22;16599;47.078;15.536;2024-01-06T15:16:45;5.60;99.90
29687;DHT22;16599;47.078;15.536;2024-01-06T15:19:12;5.60;99.90
29687;DHT22;16599;47.078;15.536;2024-01-06T15:21:40;5.60;99.90
29687;DHT22;16599;47.078;15.536;2024-01-06T15:24:07;5.60;99.90
29687;DHT22;16599;47.078;15.536;2024-01-06T15:26:33;5.50;99.90
29687;DHT22;16599;47.078;15.536;2024-01-06T15:29:00;5.50;99.90
29687;DHT22;16599;47.078;15.536;2024-01-06T15:31:29;5.50;99.90
29687;DHT22;16599;47.078;15.536;2024-01-06T15:33:56;5.50;99.90
29687;DHT22;16599;47.078;15.536;2024-01-06T15:36:23;5.40;99.90
29687;DHT22;16599;47.078;15.536;2024-01-06T15:38:50;5.40;99.90
29687;DHT22;16599;47.078;15.536;2024-01-06T15:41:17;5.40;99.90
29687;DHT22;16599;47.078;15.536;2024-01-06T15:43:44;5.40;99.90
29687;DHT22;16599;47.078;15.536;2024-01-06T15:46:11;5.30;99.90
29687;DHT22;16599;47.078;15.536;2024-01-06T15:48:39;5.30;99.90
29687;DHT22;16599;47.078;15.536;2024-01-06T15:51:06;5.30;99.90
29687;DHT22;16599;47.078;15.536;2024-01-06T15:53:33;5.30;99.90
29687;DHT22;16599;47.078;15.536;2024-01-06T15:56:01;5.30;99.90
29687;DHT22;16599;47.078;15.536;2024-01-06T15:58:28;5.20;99.90
29687;DHT22;16599;47.078;15.536;2024-01-06T16:00:55;5.20;99.90
29687;DHT22;16599;47.078;15.536;2024-01-06T16:03:22;5.10;99.90
29687;DHT22;16599;47.078;15.536;2024-01-06T16:05:49;5.10;99.90
29687;DHT22;16599;47.078;15.536;2024-01-06T16:08:17;5.10;99.90
29687;DHT22;16599;47.078;15.536;2024-01-06T16:10:44;5.00;99.90
29687;DHT22;16599;47.078;15.536;2024-01-06T16:13:11;5.00;99.90
29687;DHT22;16599;47.078;15.536;2024-01-06T16:15:41;5.00;99.90
29687;DHT22;16599;47.078;15.536;2024-01-06T16:18:08;5.00;99.90
29687;DHT22;16599;47.078;15.536;2024-01-06T16:20:35;4.90;99.90